Portada
METAR-TAF:

METAR-TAF

Aeroports :

Udon Thani, Tailàndia

latitud: 17-23N, longitud: 102-48E, altitud: 177 m

Observació

L'informe es va fer fa 1 hora i 2 minuts, a les 04:00 UTC
Vent 6 kt del Nord-Est, variant entre Nord i Est/Sud-Est
Temperatura 25°C
Humitat 50%
Pressió 1020 hPa
Visibilitat 10 km o més
sense núvols per sota de 1500 mi sense presència de cumulonimbus.

METAR: VTUD 140400Z 05006KT 350V110 CAVOK 25/14 Q1020 NOSIG

Hora: 12:02 (05:02 UTC)

Pronòstic

L'informe es va fer fa 6 hores i 2 minuts, a les 23:00 UTC
Pronòstic vàlid del 14 a les 00 UTC al 14 a les 24 UTC
Vent 6 kt del Nord-Est
Visibilitat 10 km o més
Núvols disperses a una alçada de 10000 ft

TAF: VTUD 132300Z 1400/1424 05006KT 9999 SCT100

Observacions i pronòstics meteorològics de més de 4000 aeroports (METAR i TAF).

Les estacions disponibles són els punts grocs i vermells al mapa.

Posi el ratolí al punt desitjat per veure el nom de l'estació.

Feu clic per veure les observacions i els pronòstics meteorològics.

Per canviar el mapa: feu clic els botons verds amb una creu de color negre per apropar; al botó verd amb un guió per allunyar la imatge; o en les fletxes verdes per a mapes adjacents.


METAR-TAF: